sensor_id;sensor_type;location;lat;lon;timestamp;P1;durP1;ratioP1;P2;durP2;ratioP2
22929;SDS011;11630;42.660;23.292;2022-07-29T00:02:07;9.80;;;6.63;;
22929;SDS011;11630;42.660;23.292;2022-07-29T00:04:38;9.67;;;7.10;;
22929;SDS011;11630;42.660;23.292;2022-07-29T00:07:09;7.23;;;6.53;;
22929;SDS011;11630;42.660;23.292;2022-07-29T00:09:40;7.87;;;7.13;;
22929;SDS011;11630;42.660;23.292;2022-07-29T00:12:11;9.20;;;7.53;;
22929;SDS011;11630;42.660;23.292;2022-07-29T00:14:42;8.57;;;7.67;;
22929;SDS011;11630;42.660;23.292;2022-07-29T00:17:13;11.27;;;7.97;;
22929;SDS011;11630;42.660;23.292;2022-07-29T00:19:44;8.27;;;7.40;;
22929;SDS011;11630;42.660;23.292;2022-07-29T00:22:15;8.80;;;7.90;;
22929;SDS011;11630;42.660;23.292;2022-07-29T00:24:46;13.13;;;8.17;;
22929;SDS011;11630;42.660;23.292;2022-07-29T00:27:17;8.43;;;7.30;;
22929;SDS011;11630;42.660;23.292;2022-07-29T00:29:49;8.77;;;7.87;;
22929;SDS011;11630;42.660;23.292;2022-07-29T00:32:22;9.47;;;7.90;;
22929;SDS011;11630;42.660;23.292;2022-07-29T00:34:53;9.57;;;7.30;;
22929;SDS011;11630;42.660;23.292;2022-07-29T00:37:40;12.03;;;7.60;;
22929;SDS011;11630;42.660;23.292;2022-07-29T00:40:11;8.73;;;7.63;;
22929;SDS011;11630;42.660;23.292;2022-07-29T00:42:44;10.53;;;6.73;;
22929;SDS011;11630;42.660;23.292;2022-07-29T00:45:16;8.47;;;7.67;;
22929;SDS011;11630;42.660;23.292;2022-07-29T00:47:48;8.90;;;7.57;;
22929;SDS011;11630;42.660;23.292;2022-07-29T00:50:18;8.87;;;8.00;;
22929;SDS011;11630;42.660;23.292;2022-07-29T00:52:50;11.50;;;7.80;;
22929;SDS011;11630;42.660;23.292;2022-07-29T00:55:21;8.30;;;7.50;;
22929;SDS011;11630;42.660;23.292;2022-07-29T00:57:52;8.27;;;7.50;;
22929;SDS011;11630;42.660;23.292;2022-07-29T01:00:25;8.37;;;7.50;;
22929;SDS011;11630;42.660;23.292;2022-07-29T01:02:57;11.67;;;8.87;;
22929;SDS011;11630;42.660;23.292;2022-07-29T01:05:31;13.80;;;9.40;;
22929;SDS011;11630;42.660;23.292;2022-07-29T01:08:04;15.33;;;11.10;;
22929;SDS011;11630;42.660;23.292;2022-07-29T01:10:35;11.83;;;10.70;;
22929;SDS011;11630;42.660;23.292;2022-07-29T01:13:07;11.50;;;10.27;;
22929;SDS011;11630;42.660;23.292;2022-07-29T01:15:43;13.07;;;10.30;;
22929;SDS011;11630;42.660;23.292;2022-07-29T01:18:34;14.27;;;10.10;;
22929;SDS011;11630;42.660;23.292;2022-07-29T01:32:05;10.47;;;9.03;;
22929;SDS011;11630;42.660;23.292;2022-07-29T01:34:55;11.17;;;8.83;;
22929;SDS011;11630;42.660;23.292;2022-07-29T01:37:27;10.37;;;9.33;;
22929;SDS011;11630;42.660;23.292;2022-07-29T01:39:58;11.37;;;9.00;;
22929;SDS011;11630;42.660;23.292;2022-07-29T01:42:40;11.83;;;9.37;;
22929;SDS011;11630;42.660;23.292;2022-07-29T01:45:14;12.80;;;11.13;;
22929;SDS011;11630;42.660;23.292;2022-07-29T01:47:54;12.60;;;11.30;;
22929;SDS011;11630;42.660;23.292;2022-07-29T01:50:26;14.53;;;10.10;;
22929;SDS011;11630;42.660;23.292;2022-07-29T01:52:56;10.73;;;9.47;;
22929;SDS011;11630;42.660;23.292;2022-07-29T01:55:32;14.53;;;11.00;;
22929;SDS011;11630;42.660;23.292;2022-07-29T01:58:04;11.30;;;10.00;;
22929;SDS011;11630;42.660;23.292;2022-07-29T02:00:36;10.60;;;9.33;;
22929;SDS011;11630;42.660;23.292;2022-07-29T02:03:11;12.67;;;10.30;;
22929;SDS011;11630;42.660;23.292;2022-07-29T02:05:42;17.73;;;11.53;;
22929;SDS011;11630;42.660;23.292;2022-07-29T02:08:13;13.13;;;10.73;;
22929;SDS011;11630;42.660;23.292;2022-07-29T02:10:47;12.67;;;10.07;;
22929;SDS011;11630;42.660;23.292;2022-07-29T02:13:19;14.77;;;11.57;;
22929;SDS011;11630;42.660;23.292;2022-07-29T02:15:51;13.70;;;10.97;;
22929;SDS011;11630;42.660;23.292;2022-07-29T02:18:26;11.77;;;9.83;;
22929;SDS011;11630;42.660;23.292;2022-07-29T02:20:59;14.90;;;10.00;;
22929;SDS011;11630;42.660;23.292;2022-07-29T02:23:29;14.53;;;9.50;;
22929;SDS011;11630;42.660;23.292;2022-07-29T02:26:01;17.50;;;9.97;;
22929;SDS011;11630;42.660;23.292;2022-07-29T02:28:33;14.23;;;10.30;;
22929;SDS011;11630;42.660;23.292;2022-07-29T02:31:05;14.27;;;9.63;;
22929;SDS011;11630;42.660;23.292;2022-07-29T02:33:37;10.57;;;9.47;;
22929;SDS011;11630;42.660;23.292;2022-07-29T02:36:09;13.23;;;10.73;;
22929;SDS011;11630;42.660;23.292;2022-07-29T02:38:41;12.27;;;10.80;;
22929;SDS011;11630;42.660;23.292;2022-07-29T02:41:20;13.00;;;10.37;;
22929;SDS011;11630;42.660;23.292;2022-07-29T02:43:55;11.03;;;9.90;;
22929;SDS011;11630;42.660;23.292;2022-07-29T02:46:29;16.67;;;13.77;;
22929;SDS011;11630;42.660;23.292;2022-07-29T02:49:09;12.70;;;11.40;;
22929;SDS011;11630;42.660;23.292;2022-07-29T02:51:45;14.87;;;11.23;;
22929;SDS011;11630;42.660;23.292;2022-07-29T02:54:23;16.70;;;13.40;;
22929;SDS011;11630;42.660;23.292;2022-07-29T02:56:58;16.97;;;13.80;;
22929;SDS011;11630;42.660;23.292;2022-07-29T02:59:29;13.67;;;12.03;;
22929;SDS011;11630;42.660;23.292;2022-07-29T03:02:01;13.10;;;11.80;;
22929;SDS011;11630;42.660;23.292;2022-07-29T03:04:33;14.40;;;12.10;;
22929;SDS011;11630;42.660;23.292;2022-07-29T03:07:05;16.93;;;13.80;;
22929;SDS011;11630;42.660;23.292;2022-07-29T03:09:36;18.73;;;14.67;;
22929;SDS011;11630;42.660;23.292;2022-07-29T03:12:08;20.27;;;15.80;;
22929;SDS011;11630;42.660;23.292;2022-07-29T03:14:39;22.70;;;13.70;;
22929;SDS011;11630;42.660;23.292;2022-07-29T03:17:10;14.53;;;13.10;;
22929;SDS011;11630;42.660;23.292;2022-07-29T03:19:42;15.17;;;13.57;;
22929;SDS011;11630;42.660;23.292;2022-07-29T03:22:13;17.60;;;13.37;;
22929;SDS011;11630;42.660;23.292;2022-07-29T03:24:44;15.13;;;13.47;;
22929;SDS011;11630;42.660;23.292;2022-07-29T03:27:17;13.17;;;11.77;;
22929;SDS011;11630;42.660;23.292;2022-07-29T03:29:48;14.63;;;11.83;;
22929;SDS011;11630;42.660;23.292;2022-07-29T03:32:18;18.63;;;12.13;;
22929;SDS011;11630;42.660;23.292;2022-07-29T03:34:49;14.20;;;12.70;;
22929;SDS011;11630;42.660;23.292;2022-07-29T03:37:20;13.93;;;12.23;;
22929;SDS011;11630;42.660;23.292;2022-07-29T03:39:51;12.47;;;11.07;;
22929;SDS011;11630;42.660;23.292;2022-07-29T03:42:24;13.60;;;12.10;;
22929;SDS011;11630;42.660;23.292;2022-07-29T03:45:00;17.20;;;12.13;;
22929;SDS011;11630;42.660;23.292;2022-07-29T03:47:31;14.47;;;11.73;;
22929;SDS011;11630;42.660;23.292;2022-07-29T03:50:06;14.80;;;11.87;;
22929;SDS011;11630;42.660;23.292;2022-07-29T03:52:38;13.40;;;12.10;;
22929;SDS011;11630;42.660;23.292;2022-07-29T03:55:09;16.63;;;11.43;;
22929;SDS011;11630;42.660;23.292;2022-07-29T03:57:40;19.90;;;15.03;;
22929;SDS011;11630;42.660;23.292;2022-07-29T04:00:13;15.03;;;13.00;;
22929;SDS011;11630;42.660;23.292;2022-07-29T04:02:44;15.50;;;13.37;;
22929;SDS011;11630;42.660;23.292;2022-07-29T04:05:16;16.70;;;12.77;;
22929;SDS011;11630;42.660;23.292;2022-07-29T04:07:48;14.53;;;12.00;;
22929;SDS011;11630;42.660;23.292;2022-07-29T04:10:19;13.87;;;12.47;;
22929;SDS011;11630;42.660;23.292;2022-07-29T04:12:51;16.63;;;12.30;;
22929;SDS011;11630;42.660;23.292;2022-07-29T04:15:21;14.53;;;12.40;;
22929;SDS011;11630;42.660;23.292;2022-07-29T04:17:51;15.17;;;12.43;;
22929;SDS011;11630;42.660;23.292;2022-07-29T04:20:22;15.77;;;12.47;;
22929;SDS011;11630;42.660;23.292;2022-07-29T04:22:52;19.07;;;11.63;;
22929;SDS011;11630;42.660;23.292;2022-07-29T04:25:23;15.33;;;12.70;;
22929;SDS011;11630;42.660;23.292;2022-07-29T04:27:54;14.77;;;11.70;;
22929;SDS011;11630;42.660;23.292;2022-07-29T04:30:28;15.67;;;12.37;;
22929;SDS011;11630;42.660;23.292;2022-07-29T04:33:02;15.40;;;11.43;;
22929;SDS011;11630;42.660;23.292;2022-07-29T04:35:35;13.23;;;9.50;;
22929;SDS011;11630;42.660;23.292;2022-07-29T04:38:06;14.60;;;10.20;;
22929;SDS011;11630;42.660;23.292;2022-07-29T04:40:37;10.10;;;8.90;;
22929;SDS011;11630;42.660;23.292;2022-07-29T04:43:08;11.43;;;9.70;;
22929;SDS011;11630;42.660;23.292;2022-07-29T04:45:39;11.23;;;9.43;;
22929;SDS011;11630;42.660;23.292;2022-07-29T04:48:10;10.97;;;9.07;;
22929;SDS011;11630;42.660;23.292;2022-07-29T04:50:40;14.03;;;9.40;;
22929;SDS011;11630;42.660;23.292;2022-07-29T04:53:10;12.13;;;10.87;;
22929;SDS011;11630;42.660;23.292;2022-07-29T04:55:41;11.80;;;8.90;;
22929;SDS011;11630;42.660;23.292;2022-07-29T04:58:12;11.00;;;9.13;;
22929;SDS011;11630;42.660;23.292;2022-07-29T05:00:43;21.47;;;9.87;;
22929;SDS011;11630;42.660;23.292;2022-07-29T05:03:13;10.50;;;9.50;;
22929;SDS011;11630;42.660;23.292;2022-07-29T05:05:43;14.77;;;9.60;;
22929;SDS011;11630;42.660;23.292;2022-07-29T05:08:14;15.47;;;9.67;;
22929;SDS011;11630;42.660;23.292;2022-07-29T05:10:45;16.80;;;8.97;;
22929;SDS011;11630;42.660;23.292;2022-07-29T05:13:16;17.37;;;9.87;;
22929;SDS011;11630;42.660;23.292;2022-07-29T05:15:48;9.93;;;8.93;;
22929;SDS011;11630;42.660;23.292;2022-07-29T05:18:18;12.43;;;8.53;;
22929;SDS011;11630;42.660;23.292;2022-07-29T05:20:48;9.37;;;8.47;;
22929;SDS011;11630;42.660;23.292;2022-07-29T05:23:19;9.57;;;8.23;;
22929;SDS011;11630;42.660;23.292;2022-07-29T05:25:50;8.73;;;7.83;;
22929;SDS011;11630;42.660;23.292;2022-07-29T05:28:21;11.90;;;8.70;;
22929;SDS011;11630;42.660;23.292;2022-07-29T05:30:52;10.57;;;9.53;;
22929;SDS011;11630;42.660;23.292;2022-07-29T05:33:22;11.00;;;7.43;;
22929;SDS011;11630;42.660;23.292;2022-07-29T05:35:54;12.13;;;7.60;;
22929;SDS011;11630;42.660;23.292;2022-07-29T05:38:25;10.93;;;8.50;;
22929;SDS011;11630;42.660;23.292;2022-07-29T05:40:56;14.67;;;7.97;;
22929;SDS011;11630;42.660;23.292;2022-07-29T05:43:28;9.23;;;7.43;;
22929;SDS011;11630;42.660;23.292;2022-07-29T05:46:01;9.50;;;7.67;;
22929;SDS011;11630;42.660;23.292;2022-07-29T05:48:32;10.63;;;7.60;;
22929;SDS011;11630;42.660;23.292;2022-07-29T05:51:04;10.27;;;8.97;;
22929;SDS011;11630;42.660;23.292;2022-07-29T05:53:34;11.60;;;7.23;;
22929;SDS011;11630;42.660;23.292;2022-07-29T05:56:05;10.27;;;6.73;;
22929;SDS011;11630;42.660;23.292;2022-07-29T05:58:34;11.23;;;6.60;;
22929;SDS011;11630;42.660;23.292;2022-07-29T06:01:04;7.30;;;6.20;;
22929;SDS011;11630;42.660;23.292;2022-07-29T06:03:34;11.93;;;6.47;;
22929;SDS011;11630;42.660;23.292;2022-07-29T06:06:04;6.63;;;5.93;;
22929;SDS011;11630;42.660;23.292;2022-07-29T06:08:36;13.53;;;6.30;;
22929;SDS011;11630;42.660;23.292;2022-07-29T06:11:07;10.20;;;6.57;;
22929;SDS011;11630;42.660;23.292;2022-07-29T06:13:38;8.90;;;7.67;;
22929;SDS011;11630;42.660;23.292;2022-07-29T06:16:09;13.80;;;7.67;;
22929;SDS011;11630;42.660;23.292;2022-07-29T06:18:40;15.93;;;7.13;;
22929;SDS011;11630;42.660;23.292;2022-07-29T06:21:10;14.30;;;7.10;;
22929;SDS011;11630;42.660;23.292;2022-07-29T06:23:41;8.03;;;7.03;;
22929;SDS011;11630;42.660;23.292;2022-07-29T06:26:13;12.60;;;7.37;;
22929;SDS011;11630;42.660;23.292;2022-07-29T06:28:49;8.47;;;6.70;;
22929;SDS011;11630;42.660;23.292;2022-07-29T06:31:20;11.23;;;7.33;;
22929;SDS011;11630;42.660;23.292;2022-07-29T06:33:51;14.30;;;7.50;;
22929;SDS011;11630;42.660;23.292;2022-07-29T06:36:23;11.73;;;7.77;;
22929;SDS011;11630;42.660;23.292;2022-07-29T06:38:53;9.93;;;7.03;;
22929;SDS011;11630;42.660;23.292;2022-07-29T06:41:23;9.57;;;7.73;;
22929;SDS011;11630;42.660;23.292;2022-07-29T06:43:54;20.90;;;8.03;;
22929;SDS011;11630;42.660;23.292;2022-07-29T06:46:25;10.97;;;5.87;;
22929;SDS011;11630;42.660;23.292;2022-07-29T06:48:55;10.00;;;6.40;;
22929;SDS011;11630;42.660;23.292;2022-07-29T06:51:26;9.03;;;5.97;;
22929;SDS011;11630;42.660;23.292;2022-07-29T06:53:57;8.23;;;6.20;;
22929;SDS011;11630;42.660;23.292;2022-07-29T06:56:34;9.87;;;6.20;;
22929;SDS011;11630;42.660;23.292;2022-07-29T06:58:59;11.10;;;6.10;;
22929;SDS011;11630;42.660;23.292;2022-07-29T07:01:30;7.67;;;6.80;;
22929;SDS011;11630;42.660;23.292;2022-07-29T07:04:02;13.57;;;6.50;;
22929;SDS011;11630;42.660;23.292;2022-07-29T07:06:32;16.10;;;8.00;;
22929;SDS011;11630;42.660;23.292;2022-07-29T07:09:03;8.93;;;5.77;;
22929;SDS011;11630;42.660;23.292;2022-07-29T07:11:34;6.80;;;6.10;;
22929;SDS011;11630;42.660;23.292;2022-07-29T07:14:05;9.83;;;6.30;;
22929;SDS011;11630;42.660;23.292;2022-07-29T07:16:36;9.60;;;5.80;;
22929;SDS011;11630;42.660;23.292;2022-07-29T07:19:07;8.43;;;6.13;;
22929;SDS011;11630;42.660;23.292;2022-07-29T07:21:43;8.93;;;6.60;;
22929;SDS011;11630;42.660;23.292;2022-07-29T07:24:14;10.60;;;6.03;;
22929;SDS011;11630;42.660;23.292;2022-07-29T07:26:45;6.67;;;5.70;;
22929;SDS011;11630;42.660;23.292;2022-07-29T07:29:17;9.63;;;6.43;;
22929;SDS011;11630;42.660;23.292;2022-07-29T07:31:48;6.27;;;5.70;;
22929;SDS011;11630;42.660;23.292;2022-07-29T07:34:19;7.63;;;5.83;;
22929;SDS011;11630;42.660;23.292;2022-07-29T07:36:50;9.10;;;5.93;;
22929;SDS011;11630;42.660;23.292;2022-07-29T07:39:21;10.00;;;5.80;;
22929;SDS011;11630;42.660;23.292;2022-07-29T07:41:52;11.43;;;5.93;;
22929;SDS011;11630;42.660;23.292;2022-07-29T07:44:21;8.17;;;5.30;;
22929;SDS011;11630;42.660;23.292;2022-07-29T07:46:52;7.73;;;5.57;;
22929;SDS011;11630;42.660;23.292;2022-07-29T07:49:23;11.60;;;5.20;;
22929;SDS011;11630;42.660;23.292;2022-07-29T07:51:54;7.10;;;4.47;;
22929;SDS011;11630;42.660;23.292;2022-07-29T07:54:26;6.43;;;4.70;;
22929;SDS011;11630;42.660;23.292;2022-07-29T07:56:56;10.23;;;5.63;;
22929;SDS011;11630;42.660;23.292;2022-07-29T07:59:27;6.30;;;4.83;;
22929;SDS011;11630;42.660;23.292;2022-07-29T08:01:58;6.53;;;4.60;;
22929;SDS011;11630;42.660;23.292;2022-07-29T08:04:32;7.00;;;4.60;;
22929;SDS011;11630;42.660;23.292;2022-07-29T08:07:02;7.23;;;4.53;;
22929;SDS011;11630;42.660;23.292;2022-07-29T08:09:33;17.60;;;5.05;;
22929;SDS011;11630;42.660;23.292;2022-07-29T08:12:05;7.22;;;4.75;;
22929;SDS011;11630;42.660;23.292;2022-07-29T08:14:36;11.03;;;5.30;;
22929;SDS011;11630;42.660;23.292;2022-07-29T08:17:07;8.63;;;5.33;;
22929;SDS011;11630;42.660;23.292;2022-07-29T08:19:38;5.73;;;4.97;;
22929;SDS011;11630;42.660;23.292;2022-07-29T08:22:08;9.98;;;4.72;;
22929;SDS011;11630;42.660;23.292;2022-07-29T08:24:40;6.17;;;4.60;;
22929;SDS011;11630;42.660;23.292;2022-07-29T08:27:10;5.58;;;3.92;;
22929;SDS011;11630;42.660;23.292;2022-07-29T08:29:42;6.70;;;4.37;;
22929;SDS011;11630;42.660;23.292;2022-07-29T08:32:12;5.15;;;4.50;;
22929;SDS011;11630;42.660;23.292;2022-07-29T08:34:43;6.60;;;4.80;;
22929;SDS011;11630;42.660;23.292;2022-07-29T08:37:13;8.03;;;5.00;;
22929;SDS011;11630;42.660;23.292;2022-07-29T08:39:45;5.83;;;4.30;;
22929;SDS011;11630;42.660;23.292;2022-07-29T08:42:16;5.20;;;4.15;;
22929;SDS011;11630;42.660;23.292;2022-07-29T08:44:48;4.92;;;4.45;;
22929;SDS011;11630;42.660;23.292;2022-07-29T08:47:19;8.78;;;4.45;;
22929;SDS011;11630;42.660;23.292;2022-07-29T08:49:50;6.63;;;3.90;;
22929;SDS011;11630;42.660;23.292;2022-07-29T08:52:23;7.13;;;4.13;;
22929;SDS011;11630;42.660;23.292;2022-07-29T08:54:54;9.78;;;3.85;;
22929;SDS011;11630;42.660;23.292;2022-07-29T08:57:25;4.20;;;3.80;;
22929;SDS011;11630;42.660;23.292;2022-07-29T08:59:57;15.08;;;4.72;;
22929;SDS011;11630;42.660;23.292;2022-07-29T09:02:33;4.17;;;3.87;;
22929;SDS011;11630;42.660;23.292;2022-07-29T09:05:02;5.72;;;4.30;;
22929;SDS011;11630;42.660;23.292;2022-07-29T09:07:34;15.68;;;4.78;;
22929;SDS011;11630;42.660;23.292;2022-07-29T09:10:06;12.07;;;4.75;;
22929;SDS011;11630;42.660;23.292;2022-07-29T09:12:37;5.33;;;4.85;;
22929;SDS011;11630;42.660;23.292;2022-07-29T09:15:08;12.82;;;4.65;;
22929;SDS011;11630;42.660;23.292;2022-07-29T09:17:48;19.30;;;6.75;;
22929;SDS011;11630;42.660;23.292;2022-07-29T09:20:20;16.07;;;5.92;;
22929;SDS011;11630;42.660;23.292;2022-07-29T09:22:51;7.50;;;4.97;;
22929;SDS011;11630;42.660;23.292;2022-07-29T09:28:11;5.58;;;3.95;;
22929;SDS011;11630;42.660;23.292;2022-07-29T09:30:51;7.05;;;4.83;;
22929;SDS011;11630;42.660;23.292;2022-07-29T09:33:24;13.18;;;4.92;;
22929;SDS011;11630;42.660;23.292;2022-07-29T09:36:06;10.98;;;3.60;;
22929;SDS011;11630;42.660;23.292;2022-07-29T09:38:35;11.38;;;4.85;;
22929;SDS011;11630;42.660;23.292;2022-07-29T09:41:08;5.12;;;4.17;;
22929;SDS011;11630;42.660;23.292;2022-07-29T09:43:39;6.53;;;4.15;;
22929;SDS011;11630;42.660;23.292;2022-07-29T09:46:13;4.37;;;3.87;;
22929;SDS011;11630;42.660;23.292;2022-07-29T09:48:43;9.10;;;3.70;;
22929;SDS011;11630;42.660;23.292;2022-07-29T09:51:18;7.33;;;4.72;;
22929;SDS011;11630;42.660;23.292;2022-07-29T09:53:49;10.28;;;4.53;;
22929;SDS011;11630;42.660;23.292;2022-07-29T09:56:20;6.15;;;4.00;;
22929;SDS011;11630;42.660;23.292;2022-07-29T09:59:07;13.10;;;5.47;;
22929;SDS011;11630;42.660;23.292;2022-07-29T10:01:41;4.65;;;4.25;;
22929;SDS011;11630;42.660;23.292;2022-07-29T10:04:12;12.10;;;5.28;;
22929;SDS011;11630;42.660;23.292;2022-07-29T10:07:00;11.18;;;4.90;;
22929;SDS011;11630;42.660;23.292;2022-07-29T10:09:35;9.38;;;4.20;;
22929;SDS011;11630;42.660;23.292;2022-07-29T10:12:06;5.62;;;4.05;;
22929;SDS011;11630;42.660;23.292;2022-07-29T10:14:37;8.48;;;4.45;;
22929;SDS011;11630;42.660;23.292;2022-07-29T10:17:09;7.30;;;4.53;;
22929;SDS011;11630;42.660;23.292;2022-07-29T10:19:40;4.60;;;4.17;;
22929;SDS011;11630;42.660;23.292;2022-07-29T10:22:11;6.12;;;4.72;;
22929;SDS011;11630;42.660;23.292;2022-07-29T10:24:43;4.83;;;3.67;;
22929;SDS011;11630;42.660;23.292;2022-07-29T10:27:14;4.78;;;3.98;;
22929;SDS011;11630;42.660;23.292;2022-07-29T10:29:45;5.00;;;4.15;;
22929;SDS011;11630;42.660;23.292;2022-07-29T10:32:34;6.22;;;4.50;;
22929;SDS011;11630;42.660;23.292;2022-07-29T10:35:09;5.03;;;4.35;;
22929;SDS011;11630;42.660;23.292;2022-07-29T10:37:50;5.25;;;4.60;;
22929;SDS011;11630;42.660;23.292;2022-07-29T10:40:22;7.12;;;4.08;;
22929;SDS011;11630;42.660;23.292;2022-07-29T10:43:22;4.50;;;3.87;;
22929;SDS011;11630;42.660;23.292;2022-07-29T10:45:54;4.35;;;3.65;;
22929;SDS011;11630;42.660;23.292;2022-07-29T10:48:27;5.75;;;4.45;;
22929;SDS011;11630;42.660;23.292;2022-07-29T10:51:02;6.67;;;5.12;;
22929;SDS011;11630;42.660;23.292;2022-07-29T10:53:49;11.00;;;5.67;;
22929;SDS011;11630;42.660;23.292;2022-07-29T10:56:29;5.50;;;4.70;;
22929;SDS011;11630;42.660;23.292;2022-07-29T11:01:52;4.53;;;4.12;;
22929;SDS011;11630;42.660;23.292;2022-07-29T11:07:16;4.85;;;4.35;;
22929;SDS011;11630;42.660;23.292;2022-07-29T11:15:10;11.85;;;4.62;;
22929;SDS011;11630;42.660;23.292;2022-07-29T11:20:31;5.17;;;4.70;;
22929;SDS011;11630;42.660;23.292;2022-07-29T11:29:00;5.87;;;4.03;;
22929;SDS011;11630;42.660;23.292;2022-07-29T11:31:34;7.60;;;4.92;;
22929;SDS011;11630;42.660;23.292;2022-07-29T11:42:41;12.78;;;5.60;;
22929;SDS011;11630;42.660;23.292;2022-07-29T11:45:17;8.93;;;5.27;;
22929;SDS011;11630;42.660;23.292;2022-07-29T11:47:54;10.98;;;4.50;;
22929;SDS011;11630;42.660;23.292;2022-07-29T11:50:28;10.82;;;5.30;;
22929;SDS011;11630;42.660;23.292;2022-07-29T11:52:57;8.13;;;4.87;;
22929;SDS011;11630;42.660;23.292;2022-07-29T11:55:28;7.45;;;5.22;;
22929;SDS011;11630;42.660;23.292;2022-07-29T11:58:07;11.57;;;5.25;;
22929;SDS011;11630;42.660;23.292;2022-07-29T12:00:40;11.40;;;4.87;;
22929;SDS011;11630;42.660;23.292;2022-07-29T12:03:11;5.28;;;4.75;;
22929;SDS011;11630;42.660;23.292;2022-07-29T12:05:43;23.87;;;6.12;;
22929;SDS011;11630;42.660;23.292;2022-07-29T12:08:17;5.80;;;4.83;;
22929;SDS011;11630;42.660;23.292;2022-07-29T12:10:51;6.17;;;4.70;;
22929;SDS011;11630;42.660;23.292;2022-07-29T12:13:22;8.63;;;4.53;;
22929;SDS011;11630;42.660;23.292;2022-07-29T12:15:54;11.05;;;5.75;;
22929;SDS011;11630;42.660;23.292;2022-07-29T12:18:25;10.90;;;4.55;;
22929;SDS011;11630;42.660;23.292;2022-07-29T12:20:57;10.28;;;5.30;;
22929;SDS011;11630;42.660;23.292;2022-07-29T12:23:28;10.25;;;5.28;;
22929;SDS011;11630;42.660;23.292;2022-07-29T12:26:00;9.03;;;4.60;;
22929;SDS011;11630;42.660;23.292;2022-07-29T12:28:51;9.53;;;5.12;;
22929;SDS011;11630;42.660;23.292;2022-07-29T12:31:23;4.35;;;4.05;;
22929;SDS011;11630;42.660;23.292;2022-07-29T12:33:54;4.62;;;4.17;;
22929;SDS011;11630;42.660;23.292;2022-07-29T12:36:24;11.80;;;6.22;;
22929;SDS011;11630;42.660;23.292;2022-07-29T12:38:54;9.73;;;5.17;;
22929;SDS011;11630;42.660;23.292;2022-07-29T12:41:27;9.10;;;5.40;;
22929;SDS011;11630;42.660;23.292;2022-07-29T12:43:59;8.10;;;4.37;;
22929;SDS011;11630;42.660;23.292;2022-07-29T12:46:30;7.12;;;4.45;;
22929;SDS011;11630;42.660;23.292;2022-07-29T12:49:00;6.50;;;4.40;;
22929;SDS011;11630;42.660;23.292;2022-07-29T12:51:34;5.33;;;4.37;;
22929;SDS011;11630;42.660;23.292;2022-07-29T12:54:08;8.60;;;4.65;;
22929;SDS011;11630;42.660;23.292;2022-07-29T12:56:40;5.92;;;4.28;;
22929;SDS011;11630;42.660;23.292;2022-07-29T12:59:16;7.60;;;4.97;;
22929;SDS011;11630;42.660;23.292;2022-07-29T13:01:47;8.05;;;4.45;;
22929;SDS011;11630;42.660;23.292;2022-07-29T13:04:29;5.05;;;4.62;;
22929;SDS011;11630;42.660;23.292;2022-07-29T13:06:58;10.32;;;4.87;;
22929;SDS011;11630;42.660;23.292;2022-07-29T13:09:38;8.53;;;4.80;;
22929;SDS011;11630;42.660;23.292;2022-07-29T13:12:13;20.75;;;6.50;;
22929;SDS011;11630;42.660;23.292;2022-07-29T13:14:44;5.00;;;4.50;;
22929;SDS011;11630;42.660;23.292;2022-07-29T13:17:15;5.62;;;5.00;;
22929;SDS011;11630;42.660;23.292;2022-07-29T13:19:48;5.45;;;4.62;;
22929;SDS011;11630;42.660;23.292;2022-07-29T13:22:21;4.40;;;3.80;;
22929;SDS011;11630;42.660;23.292;2022-07-29T13:24:57;9.88;;;5.25;;
22929;SDS011;11630;42.660;23.292;2022-07-29T13:27:31;10.65;;;4.67;;
22929;SDS011;11630;42.660;23.292;2022-07-29T13:30:04;6.85;;;4.87;;
22929;SDS011;11630;42.660;23.292;2022-07-29T13:32:35;6.90;;;4.20;;
22929;SDS011;11630;42.660;23.292;2022-07-29T13:35:07;15.78;;;5.50;;
22929;SDS011;11630;42.660;23.292;2022-07-29T13:37:38;21.40;;;4.97;;
22929;SDS011;11630;42.660;23.292;2022-07-29T13:40:09;8.08;;;4.62;;
22929;SDS011;11630;42.660;23.292;2022-07-29T13:42:41;4.87;;;4.15;;
22929;SDS011;11630;42.660;23.292;2022-07-29T13:45:12;7.40;;;4.37;;
22929;SDS011;11630;42.660;23.292;2022-07-29T13:47:43;10.00;;;4.40;;
22929;SDS011;11630;42.660;23.292;2022-07-29T13:50:13;12.45;;;4.80;;
22929;SDS011;11630;42.660;23.292;2022-07-29T13:52:45;4.10;;;3.80;;
22929;SDS011;11630;42.660;23.292;2022-07-29T13:55:15;7.25;;;4.35;;
22929;SDS011;11630;42.660;23.292;2022-07-29T13:57:46;4.95;;;4.45;;
22929;SDS011;11630;42.660;23.292;2022-07-29T14:00:17;14.60;;;4.75;;
22929;SDS011;11630;42.660;23.292;2022-07-29T14:02:46;5.42;;;4.85;;
22929;SDS011;11630;42.660;23.292;2022-07-29T14:05:17;10.20;;;4.75;;
22929;SDS011;11630;42.660;23.292;2022-07-29T14:07:49;14.53;;;5.55;;
22929;SDS011;11630;42.660;23.292;2022-07-29T14:10:20;5.83;;;4.87;;
22929;SDS011;11630;42.660;23.292;2022-07-29T14:12:52;6.33;;;4.80;;
22929;SDS011;11630;42.660;23.292;2022-07-29T14:15:23;12.45;;;4.62;;
22929;SDS011;11630;42.660;23.292;2022-07-29T14:17:54;7.62;;;4.15;;
22929;SDS011;11630;42.660;23.292;2022-07-29T14:20:25;6.87;;;4.55;;
22929;SDS011;11630;42.660;23.292;2022-07-29T14:22:56;11.85;;;4.78;;
22929;SDS011;11630;42.660;23.292;2022-07-29T14:25:27;4.65;;;3.92;;
22929;SDS011;11630;42.660;23.292;2022-07-29T14:27:58;6.40;;;4.78;;
22929;SDS011;11630;42.660;23.292;2022-07-29T14:30:29;7.65;;;5.17;;
22929;SDS011;11630;42.660;23.292;2022-07-29T14:33:00;5.80;;;4.85;;
22929;SDS011;11630;42.660;23.292;2022-07-29T14:35:32;5.97;;;4.47;;
22929;SDS011;11630;42.660;23.292;2022-07-29T14:38:03;5.00;;;4.55;;
22929;SDS011;11630;42.660;23.292;2022-07-29T14:40:41;7.12;;;4.40;;
22929;SDS011;11630;42.660;23.292;2022-07-29T14:43:13;5.47;;;4.60;;
22929;SDS011;11630;42.660;23.292;2022-07-29T14:45:44;6.28;;;4.50;;
22929;SDS011;11630;42.660;23.292;2022-07-29T14:48:14;5.70;;;4.30;;
22929;SDS011;11630;42.660;23.292;2022-07-29T14:50:45;5.40;;;4.90;;
22929;SDS011;11630;42.660;23.292;2022-07-29T14:53:16;9.85;;;4.97;;
22929;SDS011;11630;42.660;23.292;2022-07-29T14:55:48;10.05;;;4.60;;
22929;SDS011;11630;42.660;23.292;2022-07-29T14:58:18;5.87;;;5.03;;
22929;SDS011;11630;42.660;23.292;2022-07-29T15:00:49;6.85;;;4.30;;
22929;SDS011;11630;42.660;23.292;2022-07-29T15:03:20;8.18;;;5.05;;
22929;SDS011;11630;42.660;23.292;2022-07-29T15:05:51;4.97;;;4.58;;
22929;SDS011;11630;42.660;23.292;2022-07-29T15:08:22;10.45;;;5.55;;
22929;SDS011;11630;42.660;23.292;2022-07-29T15:10:53;7.55;;;4.60;;
22929;SDS011;11630;42.660;23.292;2022-07-29T15:13:23;5.33;;;4.78;;
22929;SDS011;11630;42.660;23.292;2022-07-29T15:15:54;6.03;;;5.40;;
22929;SDS011;11630;42.660;23.292;2022-07-29T15:18:25;11.55;;;5.30;;
22929;SDS011;11630;42.660;23.292;2022-07-29T15:20:56;5.22;;;4.72;;
22929;SDS011;11630;42.660;23.292;2022-07-29T15:23:27;5.25;;;4.62;;
22929;SDS011;11630;42.660;23.292;2022-07-29T15:25:58;4.65;;;4.22;;
22929;SDS011;11630;42.660;23.292;2022-07-29T15:28:29;5.65;;;5.03;;
22929;SDS011;11630;42.660;23.292;2022-07-29T15:31:03;5.78;;;4.62;;
22929;SDS011;11630;42.660;23.292;2022-07-29T15:33:34;8.00;;;4.70;;
22929;SDS011;11630;42.660;23.292;2022-07-29T15:36:06;10.15;;;5.20;;
22929;SDS011;11630;42.660;23.292;2022-07-29T15:38:36;9.53;;;4.62;;